Seward, Nebraska
Current Conditions -  °F | °C
As of 7:54 AM on Sunday 25 Jan 2015 (Local Time) from KLNK Reporting Station
Overcast Overcast  
Wind Chill: 25°   Ceiling: 1700
Heat Index: 36°   Visibility: 10mi
Dew Point: 30°   Wind: 22mph
Humidity: 79%   Direction: 340°NNW
Pressure: 29.87"   Gusts: NA
Location:  40.91°N, 97.1°W
Report Text: KLNK 251354Z 34019KT 10SM OVC017 02/M01 A2987 RMK AO2 PK WND 34027/1313 SLP119 T00221011
Loading
Personal Weather Stations






























Interactive Weather Map New forecast layout! Learn more

10-Day Weather Forecast

Advertisements
Track Severe Weather on mobile